St Johns — 9LU2496 — position and weather

sailwx.info

Track history (hours):
 
Tides and Currents Weather Stations Pressure Air Temp Water Temp Dewpoint Dewpoint Depression Visibility Wind Speed Wind Dir Waves Ship Positions

St Johns

Last reported at 2017-Nov-26 12:26 UTC. Time now 2017-Dec-16 11:16 UTC.
Position N 37°21' E 026°53'.
Warning: this ship's position is 19 days out of date.

Length 95 m; draft 4 m.

Type: Cargo ship. MMSI: 667001693.

Date/timePositionNaut miles runAvg speedWind from/ knotsBaromVisibWave heightAir tempDewpointWater temp
2017-Nov-26 12:26N 37°21' E 026°53'4 9.3
2017-Nov-26 12:00N 37°24' E 026°50'16 8.8
2017-Nov-26 10:11N 37°37' E 026°37'2 8.7
2017-Nov-26 09:57N 37°38' E 026°36'11 8.7
2017-Nov-26 08:44N 37°48' E 026°29'3 9.0
2017-Nov-26 08:22N 37°51' E 026°27'3 9.1
2017-Nov-26 08:00N 37°54' E 026°26'4 8.9
2017-Nov-26 07:30N 37°57' E 026°23'  
2017-Nov-23 00:24N 45°15' E 036°28'4 8.6
2017-Nov-22 23:58N 45°18' E 036°29'5 9.9
2017-Nov-22 23:30N 45°20' E 036°35'4 8.9
2017-Nov-22 23:00N 45°23' E 036°40'4 8.0
2017-Nov-22 22:31N 45°27' E 036°41'3 5.1
2017-Nov-22 22:00N 45°29' E 036°41'3 5.4
2017-Nov-22 21:30N 45°31' E 036°38'0 0.0
2017-Nov-22 20:41N 45°31' E 036°38'0 0.0
2017-Nov-22 20:29N 45°31' E 036°38'0 0.0
2017-Nov-22 19:59N 45°31' E 036°38'0 0.0
2017-Nov-22 19:17N 45°31' E 036°38'  
2017-Nov-19 08:02N 45°37' E 036°45'010.7
2017-Nov-19 08:00N 45°37' E 036°45'510.5
2017-Nov-19 07:30N 45°32' E 036°44'510.5
2017-Nov-19 07:01N 45°27' E 036°42'5 9.3
2017-Nov-19 06:31N 45°22' E 036°40'5 9.9
2017-Nov-19 06:01N 45°20' E 036°34'5 9.8
2017-Nov-19 05:31N 45°16' E 036°29'3 6.3
2017-Nov-19 05:01N 45°13' E 036°29'3 6.3
2017-Nov-19 04:30N 45°10' E 036°30'0 0.0
2017-Nov-19 02:29N 45°10' E 036°30'0 0.1
2017-Nov-19 01:56N 45°10' E 036°30'0 0.0
2017-Nov-19 01:26N 45°10' E 036°30'0 0.1
2017-Nov-19 00:59N 45°10' E 036°30'0 0.0
2017-Nov-19 00:29N 45°10' E 036°30'0 0.0
2017-Nov-18 23:59N 45°10' E 036°30'0 0.0
2017-Nov-18 23:29N 45°10' E 036°30'0 0.0
2017-Nov-18 22:20N 45°10' E 036°30'0 0.0
2017-Nov-18 21:59N 45°10' E 036°30'0 0.5
2017-Nov-18 21:26N 45°10' E 036°30'1 2.8
2017-Nov-18 21:00N 45°09' E 036°30'413 9.0
2017-Nov-16 23:01N 40°59' E 028°60'0 7.4
2017-Nov-16 23:00N 40°59' E 028°60'4 7.6
2017-Nov-16 22:29N 40°56' E 028°57'  
Track history (hours):
 
Tides and Currents Weather Stations Pressure Air Temp Water Temp Dewpoint Dewpoint Depression Visibility Wind Speed Wind Dir Waves Ship Positions

St Johns

Last reported at 2017-Nov-26 12:26 UTC. Time now 2017-Dec-16 11:16 UTC.
Position N 37°21' E 026°53'.
Warning: this ship's position is 19 days out of date.

Length 95 m; draft 4 m.

Type: Cargo ship. MMSI: 667001693.

Date/timePositionNaut miles runAvg speedWind from/ knotsBaromVisibWave heightAir tempDewpointWater temp
2017-Nov-26 12:26N 37°21' E 026°53'4 9.3
2017-Nov-26 12:00N 37°24' E 026°50'16 8.8
2017-Nov-26 10:11N 37°37' E 026°37'2 8.7
2017-Nov-26 09:57N 37°38' E 026°36'11 8.7
2017-Nov-26 08:44N 37°48' E 026°29'3 9.0
2017-Nov-26 08:22N 37°51' E 026°27'3 9.1
2017-Nov-26 08:00N 37°54' E 026°26'4 8.9
2017-Nov-26 07:30N 37°57' E 026°23'  
2017-Nov-23 00:24N 45°15' E 036°28'4 8.6
2017-Nov-22 23:58N 45°18' E 036°29'5 9.9
2017-Nov-22 23:30N 45°20' E 036°35'4 8.9
2017-Nov-22 23:00N 45°23' E 036°40'4 8.0
2017-Nov-22 22:31N 45°27' E 036°41'3 5.1
2017-Nov-22 22:00N 45°29' E 036°41'3 5.4
2017-Nov-22 21:30N 45°31' E 036°38'0 0.0
2017-Nov-22 20:41N 45°31' E 036°38'0 0.0
2017-Nov-22 20:29N 45°31' E 036°38'0 0.0
2017-Nov-22 19:59N 45°31' E 036°38'0 0.0
2017-Nov-22 19:17N 45°31' E 036°38'  
2017-Nov-19 08:02N 45°37' E 036°45'010.7
2017-Nov-19 08:00N 45°37' E 036°45'510.5
2017-Nov-19 07:30N 45°32' E 036°44'510.5
2017-Nov-19 07:01N 45°27' E 036°42'5 9.3
2017-Nov-19 06:31N 45°22' E 036°40'5 9.9
2017-Nov-19 06:01N 45°20' E 036°34'5 9.8
2017-Nov-19 05:31N 45°16' E 036°29'3 6.3
2017-Nov-19 05:01N 45°13' E 036°29'3 6.3
2017-Nov-19 04:30N 45°10' E 036°30'0 0.0
2017-Nov-19 02:29N 45°10' E 036°30'0 0.1
2017-Nov-19 01:56N 45°10' E 036°30'0 0.0
2017-Nov-19 01:26N 45°10' E 036°30'0 0.1
2017-Nov-19 00:59N 45°10' E 036°30'0 0.0
2017-Nov-19 00:29N 45°10' E 036°30'0 0.0
2017-Nov-18 23:59N 45°10' E 036°30'0 0.0
2017-Nov-18 23:29N 45°10' E 036°30'0 0.0
2017-Nov-18 22:20N 45°10' E 036°30'0 0.0
2017-Nov-18 21:59N 45°10' E 036°30'0 0.5
2017-Nov-18 21:26N 45°10' E 036°30'1 2.8
2017-Nov-18 21:00N 45°09' E 036°30'413 9.0
2017-Nov-16 23:01N 40°59' E 028°60'0 7.4
2017-Nov-16 23:00N 40°59' E 028°60'4 7.6
2017-Nov-16 22:29N 40°56' E 028°57'  

Dump ship's entire track history